sensor_id;sensor_type;location;lat;lon;timestamp;P1;durP1;ratioP1;P2;durP2;ratioP2
77948;SDS011;67146;51.236;-0.336;2023-02-24T00:01:35;9.63;;;2.40;;
77948;SDS011;67146;51.236;-0.336;2023-02-24T00:04:02;12.05;;;2.13;;
77948;SDS011;67146;51.236;-0.336;2023-02-24T00:06:32;12.75;;;2.67;;
77948;SDS011;67146;51.236;-0.336;2023-02-24T00:09:05;15.00;;;2.58;;
77948;SDS011;67146;51.236;-0.336;2023-02-24T00:11:34;14.38;;;3.40;;
77948;SDS011;67146;51.236;-0.336;2023-02-24T00:14:00;12.07;;;2.97;;
77948;SDS011;67146;51.236;-0.336;2023-02-24T00:16:29;15.20;;;3.22;;
77948;SDS011;67146;51.236;-0.336;2023-02-24T00:18:56;14.20;;;2.63;;
77948;SDS011;67146;51.236;-0.336;2023-02-24T00:21:22;12.02;;;2.92;;
77948;SDS011;67146;51.236;-0.336;2023-02-24T00:23:47;12.48;;;2.83;;
77948;SDS011;67146;51.236;-0.336;2023-02-24T00:26:13;11.40;;;3.23;;
77948;SDS011;67146;51.236;-0.336;2023-02-24T00:28:39;15.10;;;3.33;;
77948;SDS011;67146;51.236;-0.336;2023-02-24T00:31:06;12.80;;;3.13;;
77948;SDS011;67146;51.236;-0.336;2023-02-24T00:36:03;12.70;;;2.67;;
77948;SDS011;67146;51.236;-0.336;2023-02-24T00:38:33;22.15;;;3.30;;
77948;SDS011;67146;51.236;-0.336;2023-02-24T00:41:09;15.93;;;2.58;;
77948;SDS011;67146;51.236;-0.336;2023-02-24T00:43:36;13.63;;;3.78;;
77948;SDS011;67146;51.236;-0.336;2023-02-24T00:46:02;16.65;;;3.80;;
77948;SDS011;67146;51.236;-0.336;2023-02-24T00:48:35;17.35;;;3.55;;
77948;SDS011;67146;51.236;-0.336;2023-02-24T00:51:09;14.07;;;3.35;;
77948;SDS011;67146;51.236;-0.336;2023-02-24T00:53:39;15.07;;;4.13;;
77948;SDS011;67146;51.236;-0.336;2023-02-24T00:56:05;18.80;;;4.18;;
77948;SDS011;67146;51.236;-0.336;2023-02-24T00:58:32;14.68;;;4.30;;
77948;SDS011;67146;51.236;-0.336;2023-02-24T01:01:01;18.48;;;3.63;;
77948;SDS011;67146;51.236;-0.336;2023-02-24T01:03:28;12.52;;;2.78;;
77948;SDS011;67146;51.236;-0.336;2023-02-24T01:05:53;14.52;;;3.25;;
77948;SDS011;67146;51.236;-0.336;2023-02-24T01:08:19;9.98;;;3.03;;
77948;SDS011;67146;51.236;-0.336;2023-02-24T01:10:54;14.15;;;2.97;;
77948;SDS011;67146;51.236;-0.336;2023-02-24T01:13:40;13.95;;;2.67;;
77948;SDS011;67146;51.236;-0.336;2023-02-24T01:16:06;19.15;;;3.10;;
77948;SDS011;67146;51.236;-0.336;2023-02-24T01:18:32;9.30;;;2.13;;
77948;SDS011;67146;51.236;-0.336;2023-02-24T01:20:57;12.63;;;2.58;;
77948;SDS011;67146;51.236;-0.336;2023-02-24T01:23:23;15.40;;;3.53;;
77948;SDS011;67146;51.236;-0.336;2023-02-24T01:25:48;12.45;;;2.92;;
77948;SDS011;67146;51.236;-0.336;2023-02-24T01:28:14;13.85;;;3.08;;
77948;SDS011;67146;51.236;-0.336;2023-02-24T01:30:40;14.80;;;3.05;;
77948;SDS011;67146;51.236;-0.336;2023-02-24T01:33:07;14.95;;;3.28;;
77948;SDS011;67146;51.236;-0.336;2023-02-24T01:35:33;18.05;;;3.25;;
77948;SDS011;67146;51.236;-0.336;2023-02-24T01:37:59;12.43;;;2.92;;
77948;SDS011;67146;51.236;-0.336;2023-02-24T01:40:25;19.60;;;3.60;;
77948;SDS011;67146;51.236;-0.336;2023-02-24T01:42:51;11.75;;;3.22;;
77948;SDS011;67146;51.236;-0.336;2023-02-24T01:45:21;13.05;;;2.80;;
77948;SDS011;67146;51.236;-0.336;2023-02-24T01:47:49;12.65;;;2.83;;
77948;SDS011;67146;51.236;-0.336;2023-02-24T01:50:15;15.32;;;2.80;;
77948;SDS011;67146;51.236;-0.336;2023-02-24T01:52:45;12.32;;;2.28;;
77948;SDS011;67146;51.236;-0.336;2023-02-24T01:55:13;14.70;;;2.13;;
77948;SDS011;67146;51.236;-0.336;2023-02-24T01:57:40;9.50;;;2.05;;
77948;SDS011;67146;51.236;-0.336;2023-02-24T02:00:07;13.10;;;3.08;;
77948;SDS011;67146;51.236;-0.336;2023-02-24T02:02:44;17.15;;;3.45;;
77948;SDS011;67146;51.236;-0.336;2023-02-24T02:05:14;11.80;;;2.25;;
77948;SDS011;67146;51.236;-0.336;2023-02-24T02:07:40;18.27;;;2.80;;
77948;SDS011;67146;51.236;-0.336;2023-02-24T02:10:07;17.27;;;3.30;;
77948;SDS011;67146;51.236;-0.336;2023-02-24T02:12:34;14.07;;;3.40;;
77948;SDS011;67146;51.236;-0.336;2023-02-24T02:15:08;18.98;;;3.45;;
77948;SDS011;67146;51.236;-0.336;2023-02-24T02:17:50;19.48;;;3.80;;
77948;SDS011;67146;51.236;-0.336;2023-02-24T02:23:10;19.58;;;3.40;;
77948;SDS011;67146;51.236;-0.336;2023-02-24T02:25:57;15.90;;;3.50;;
77948;SDS011;67146;51.236;-0.336;2023-02-24T02:42:07;15.73;;;3.28;;
77948;SDS011;67146;51.236;-0.336;2023-02-24T02:47:13;15.40;;;3.15;;
77948;SDS011;67146;51.236;-0.336;2023-02-24T02:50:00;12.48;;;2.78;;
77948;SDS011;67146;51.236;-0.336;2023-02-24T02:52:42;14.23;;;2.70;;
77948;SDS011;67146;51.236;-0.336;2023-02-24T02:55:14;12.55;;;3.60;;
77948;SDS011;67146;51.236;-0.336;2023-02-24T02:57:45;11.68;;;2.72;;
77948;SDS011;67146;51.236;-0.336;2023-02-24T03:00:22;12.18;;;2.63;;
77948;SDS011;67146;51.236;-0.336;2023-02-24T03:02:54;12.27;;;2.40;;
77948;SDS011;67146;51.236;-0.336;2023-02-24T03:05:23;12.23;;;2.47;;
77948;SDS011;67146;51.236;-0.336;2023-02-24T03:07:56;17.15;;;4.22;;
77948;SDS011;67146;51.236;-0.336;2023-02-24T03:10:26;16.48;;;3.22;;
77948;SDS011;67146;51.236;-0.336;2023-02-24T03:12:53;13.05;;;3.30;;
77948;SDS011;67146;51.236;-0.336;2023-02-24T03:15:20;15.15;;;3.63;;
77948;SDS011;67146;51.236;-0.336;2023-02-24T03:17:47;13.23;;;3.03;;
77948;SDS011;67146;51.236;-0.336;2023-02-24T03:22:48;15.40;;;3.00;;
77948;SDS011;67146;51.236;-0.336;2023-02-24T03:25:21;10.80;;;2.67;;
77948;SDS011;67146;51.236;-0.336;2023-02-24T03:27:53;16.83;;;3.00;;
77948;SDS011;67146;51.236;-0.336;2023-02-24T03:30:23;10.15;;;2.58;;
77948;SDS011;67146;51.236;-0.336;2023-02-24T03:32:53;20.85;;;3.60;;
77948;SDS011;67146;51.236;-0.336;2023-02-24T03:37:51;13.57;;;2.75;;
77948;SDS011;67146;51.236;-0.336;2023-02-24T03:40:19;14.93;;;2.35;;
77948;SDS011;67146;51.236;-0.336;2023-02-24T03:42:46;11.80;;;2.97;;
77948;SDS011;67146;51.236;-0.336;2023-02-24T03:45:14;14.15;;;2.95;;
77948;SDS011;67146;51.236;-0.336;2023-02-24T03:47:40;16.25;;;3.20;;
77948;SDS011;67146;51.236;-0.336;2023-02-24T03:50:19;11.73;;;3.67;;
77948;SDS011;67146;51.236;-0.336;2023-02-24T03:58:15;17.15;;;2.90;;
77948;SDS011;67146;51.236;-0.336;2023-02-24T04:00:52;18.00;;;2.92;;
77948;SDS011;67146;51.236;-0.336;2023-02-24T04:03:54;14.45;;;2.30;;
77948;SDS011;67146;51.236;-0.336;2023-02-24T04:06:31;12.75;;;2.78;;
77948;SDS011;67146;51.236;-0.336;2023-02-24T04:11:55;15.20;;;3.15;;
77948;SDS011;67146;51.236;-0.336;2023-02-24T04:14:32;13.18;;;3.22;;
77948;SDS011;67146;51.236;-0.336;2023-02-24T04:19:31;15.75;;;2.80;;
77948;SDS011;67146;51.236;-0.336;2023-02-24T04:22:02;12.00;;;2.78;;
77948;SDS011;67146;51.236;-0.336;2023-02-24T04:24:30;13.93;;;2.25;;
77948;SDS011;67146;51.236;-0.336;2023-02-24T04:26:57;8.00;;;2.05;;
77948;SDS011;67146;51.236;-0.336;2023-02-24T04:29:27;12.05;;;3.40;;
77948;SDS011;67146;51.236;-0.336;2023-02-24T04:32:00;14.80;;;3.28;;
77948;SDS011;67146;51.236;-0.336;2023-02-24T04:34:27;17.45;;;3.00;;
77948;SDS011;67146;51.236;-0.336;2023-02-24T04:36:56;11.10;;;2.15;;
77948;SDS011;67146;51.236;-0.336;2023-02-24T04:39:23;13.48;;;3.10;;
77948;SDS011;67146;51.236;-0.336;2023-02-24T04:41:49;13.38;;;2.47;;
77948;SDS011;67146;51.236;-0.336;2023-02-24T04:44:15;16.92;;;2.65;;
77948;SDS011;67146;51.236;-0.336;2023-02-24T04:46:42;15.50;;;2.95;;
77948;SDS011;67146;51.236;-0.336;2023-02-24T04:49:08;12.50;;;2.83;;
77948;SDS011;67146;51.236;-0.336;2023-02-24T04:51:34;16.67;;;3.03;;
77948;SDS011;67146;51.236;-0.336;2023-02-24T04:54:00;20.77;;;3.33;;
77948;SDS011;67146;51.236;-0.336;2023-02-24T04:56:27;13.00;;;2.70;;
77948;SDS011;67146;51.236;-0.336;2023-02-24T04:58:53;12.23;;;2.70;;
77948;SDS011;67146;51.236;-0.336;2023-02-24T05:01:18;16.17;;;2.93;;
77948;SDS011;67146;51.236;-0.336;2023-02-24T05:03:44;13.00;;;3.13;;
77948;SDS011;67146;51.236;-0.336;2023-02-24T05:06:13;13.38;;;2.33;;
77948;SDS011;67146;51.236;-0.336;2023-02-24T05:08:40;12.07;;;3.33;;
77948;SDS011;67146;51.236;-0.336;2023-02-24T05:11:05;16.15;;;2.58;;
77948;SDS011;67146;51.236;-0.336;2023-02-24T05:13:31;12.90;;;2.53;;
77948;SDS011;67146;51.236;-0.336;2023-02-24T05:16:03;10.15;;;2.80;;
77948;SDS011;67146;51.236;-0.336;2023-02-24T05:18:32;10.48;;;2.92;;
77948;SDS011;67146;51.236;-0.336;2023-02-24T05:21:03;9.77;;;2.70;;
77948;SDS011;67146;51.236;-0.336;2023-02-24T05:23:49;12.00;;;3.20;;
77948;SDS011;67146;51.236;-0.336;2023-02-24T05:26:16;11.15;;;2.20;;
77948;SDS011;67146;51.236;-0.336;2023-02-24T05:28:44;10.50;;;2.65;;
77948;SDS011;67146;51.236;-0.336;2023-02-24T05:31:13;10.48;;;2.20;;
77948;SDS011;67146;51.236;-0.336;2023-02-24T05:33:44;11.05;;;2.65;;
77948;SDS011;67146;51.236;-0.336;2023-02-24T05:36:13;11.93;;;2.67;;
77948;SDS011;67146;51.236;-0.336;2023-02-24T05:38:41;13.05;;;2.80;;
77948;SDS011;67146;51.236;-0.336;2023-02-24T05:41:19;12.88;;;2.35;;
77948;SDS011;67146;51.236;-0.336;2023-02-24T05:43:46;9.00;;;1.90;;
77948;SDS011;67146;51.236;-0.336;2023-02-24T05:46:17;9.80;;;2.03;;
77948;SDS011;67146;51.236;-0.336;2023-02-24T05:48:43;14.00;;;2.70;;
77948;SDS011;67146;51.236;-0.336;2023-02-24T05:51:09;11.02;;;2.10;;
77948;SDS011;67146;51.236;-0.336;2023-02-24T05:53:36;9.50;;;2.17;;
77948;SDS011;67146;51.236;-0.336;2023-02-24T05:56:05;12.60;;;1.88;;
77948;SDS011;67146;51.236;-0.336;2023-02-24T05:58:31;8.68;;;2.22;;
77948;SDS011;67146;51.236;-0.336;2023-02-24T06:00:57;12.37;;;2.47;;
77948;SDS011;67146;51.236;-0.336;2023-02-24T06:03:29;9.68;;;2.00;;
77948;SDS011;67146;51.236;-0.336;2023-02-24T06:05:55;12.95;;;1.75;;
77948;SDS011;67146;51.236;-0.336;2023-02-24T06:08:23;11.93;;;2.30;;
77948;SDS011;67146;51.236;-0.336;2023-02-24T06:10:50;11.75;;;2.78;;
77948;SDS011;67146;51.236;-0.336;2023-02-24T06:13:15;11.23;;;2.38;;
77948;SDS011;67146;51.236;-0.336;2023-02-24T06:15:41;11.20;;;2.55;;
77948;SDS011;67146;51.236;-0.336;2023-02-24T06:18:14;9.80;;;2.22;;
77948;SDS011;67146;51.236;-0.336;2023-02-24T06:20:41;11.13;;;2.25;;
77948;SDS011;67146;51.236;-0.336;2023-02-24T06:23:08;10.30;;;2.55;;
77948;SDS011;67146;51.236;-0.336;2023-02-24T06:25:34;9.88;;;1.98;;
77948;SDS011;67146;51.236;-0.336;2023-02-24T06:27:59;10.17;;;1.87;;
77948;SDS011;67146;51.236;-0.336;2023-02-24T06:30:25;10.68;;;1.90;;
77948;SDS011;67146;51.236;-0.336;2023-02-24T06:32:51;14.15;;;2.47;;
77948;SDS011;67146;51.236;-0.336;2023-02-24T06:35:18;11.07;;;2.33;;
77948;SDS011;67146;51.236;-0.336;2023-02-24T06:37:44;10.68;;;2.13;;
77948;SDS011;67146;51.236;-0.336;2023-02-24T06:40:10;10.05;;;2.47;;
77948;SDS011;67146;51.236;-0.336;2023-02-24T06:42:45;8.63;;;1.98;;
77948;SDS011;67146;51.236;-0.336;2023-02-24T06:45:11;13.93;;;2.78;;
77948;SDS011;67146;51.236;-0.336;2023-02-24T06:47:37;11.52;;;2.58;;
77948;SDS011;67146;51.236;-0.336;2023-02-24T06:50:03;9.00;;;2.10;;
77948;SDS011;67146;51.236;-0.336;2023-02-24T06:52:31;11.10;;;3.13;;
77948;SDS011;67146;51.236;-0.336;2023-02-24T06:54:58;11.43;;;2.65;;
77948;SDS011;67146;51.236;-0.336;2023-02-24T06:57:23;11.23;;;2.53;;
77948;SDS011;67146;51.236;-0.336;2023-02-24T06:59:48;11.50;;;2.57;;
77948;SDS011;67146;51.236;-0.336;2023-02-24T07:02:14;15.63;;;2.53;;
77948;SDS011;67146;51.236;-0.336;2023-02-24T07:04:41;8.13;;;2.58;;
77948;SDS011;67146;51.236;-0.336;2023-02-24T07:07:09;8.55;;;2.53;;
77948;SDS011;67146;51.236;-0.336;2023-02-24T07:09:38;10.20;;;3.05;;
77948;SDS011;67146;51.236;-0.336;2023-02-24T07:12:05;11.65;;;2.58;;
77948;SDS011;67146;51.236;-0.336;2023-02-24T07:14:31;8.52;;;2.13;;
77948;SDS011;67146;51.236;-0.336;2023-02-24T07:16:57;11.27;;;2.43;;
77948;SDS011;67146;51.236;-0.336;2023-02-24T07:19:24;12.25;;;2.35;;
77948;SDS011;67146;51.236;-0.336;2023-02-24T07:21:53;7.78;;;2.00;;
77948;SDS011;67146;51.236;-0.336;2023-02-24T07:24:24;10.80;;;1.95;;
77948;SDS011;67146;51.236;-0.336;2023-02-24T07:26:57;11.05;;;3.00;;
77948;SDS011;67146;51.236;-0.336;2023-02-24T07:29:24;13.38;;;3.80;;
77948;SDS011;67146;51.236;-0.336;2023-02-24T07:31:53;12.88;;;2.97;;
77948;SDS011;67146;51.236;-0.336;2023-02-24T07:34:20;9.90;;;2.58;;
77948;SDS011;67146;51.236;-0.336;2023-02-24T07:36:48;12.85;;;3.67;;
77948;SDS011;67146;51.236;-0.336;2023-02-24T07:39:15;11.50;;;2.88;;
77948;SDS011;67146;51.236;-0.336;2023-02-24T07:41:41;10.80;;;2.63;;
77948;SDS011;67146;51.236;-0.336;2023-02-24T07:44:11;11.05;;;2.35;;
77948;SDS011;67146;51.236;-0.336;2023-02-24T07:46:37;10.82;;;2.53;;
77948;SDS011;67146;51.236;-0.336;2023-02-24T07:49:03;14.18;;;3.47;;
77948;SDS011;67146;51.236;-0.336;2023-02-24T07:51:28;9.43;;;2.17;;
77948;SDS011;67146;51.236;-0.336;2023-02-24T07:53:56;12.52;;;2.40;;
77948;SDS011;67146;51.236;-0.336;2023-02-24T07:56:23;9.95;;;2.05;;
77948;SDS011;67146;51.236;-0.336;2023-02-24T07:59:04;15.45;;;2.97;;
77948;SDS011;67146;51.236;-0.336;2023-02-24T08:01:35;12.68;;;2.35;;
77948;SDS011;67146;51.236;-0.336;2023-02-24T08:04:04;11.38;;;2.42;;
77948;SDS011;67146;51.236;-0.336;2023-02-24T08:06:33;9.43;;;2.45;;
77948;SDS011;67146;51.236;-0.336;2023-02-24T08:09:06;8.70;;;1.88;;
77948;SDS011;67146;51.236;-0.336;2023-02-24T08:11:43;10.35;;;2.00;;
77948;SDS011;67146;51.236;-0.336;2023-02-24T08:14:16;7.57;;;2.13;;
77948;SDS011;67146;51.236;-0.336;2023-02-24T08:16:48;10.98;;;2.28;;
77948;SDS011;67146;51.236;-0.336;2023-02-24T08:19:16;9.38;;;2.30;;
77948;SDS011;67146;51.236;-0.336;2023-02-24T08:21:47;8.85;;;1.73;;
77948;SDS011;67146;51.236;-0.336;2023-02-24T08:24:18;9.23;;;2.05;;
77948;SDS011;67146;51.236;-0.336;2023-02-24T08:26:48;9.68;;;2.25;;
77948;SDS011;67146;51.236;-0.336;2023-02-24T08:29:31;11.77;;;1.90;;
77948;SDS011;67146;51.236;-0.336;2023-02-24T08:32:04;7.80;;;1.80;;
77948;SDS011;67146;51.236;-0.336;2023-02-24T08:34:30;7.95;;;2.08;;
77948;SDS011;67146;51.236;-0.336;2023-02-24T08:36:56;8.60;;;1.73;;
77948;SDS011;67146;51.236;-0.336;2023-02-24T08:39:22;8.88;;;2.10;;
77948;SDS011;67146;51.236;-0.336;2023-02-24T08:41:48;11.10;;;2.15;;
77948;SDS011;67146;51.236;-0.336;2023-02-24T08:44:18;8.05;;;1.90;;
77948;SDS011;67146;51.236;-0.336;2023-02-24T08:46:44;7.60;;;1.83;;
77948;SDS011;67146;51.236;-0.336;2023-02-24T08:49:13;6.75;;;1.70;;
77948;SDS011;67146;51.236;-0.336;2023-02-24T08:51:41;9.90;;;1.85;;
77948;SDS011;67146;51.236;-0.336;2023-02-24T08:54:09;8.40;;;1.60;;
77948;SDS011;67146;51.236;-0.336;2023-02-24T08:56:39;7.15;;;1.40;;
77948;SDS011;67146;51.236;-0.336;2023-02-24T08:59:08;9.85;;;1.58;;
77948;SDS011;67146;51.236;-0.336;2023-02-24T09:01:53;8.35;;;1.55;;
77948;SDS011;67146;51.236;-0.336;2023-02-24T09:04:38;9.50;;;2.10;;
77948;SDS011;67146;51.236;-0.336;2023-02-24T09:07:04;8.50;;;1.55;;
77948;SDS011;67146;51.236;-0.336;2023-02-24T09:09:35;11.30;;;2.08;;
77948;SDS011;67146;51.236;-0.336;2023-02-24T09:12:05;10.20;;;1.38;;
77948;SDS011;67146;51.236;-0.336;2023-02-24T09:14:32;6.65;;;1.63;;
77948;SDS011;67146;51.236;-0.336;2023-02-24T09:17:05;9.48;;;1.65;;
77948;SDS011;67146;51.236;-0.336;2023-02-24T09:22:29;7.25;;;1.15;;
77948;SDS011;67146;51.236;-0.336;2023-02-24T09:25:16;9.15;;;1.63;;
77948;SDS011;67146;51.236;-0.336;2023-02-24T09:27:52;11.45;;;2.85;;
77948;SDS011;67146;51.236;-0.336;2023-02-24T09:30:24;11.55;;;1.77;;
77948;SDS011;67146;51.236;-0.336;2023-02-24T09:33:04;8.20;;;1.75;;
77948;SDS011;67146;51.236;-0.336;2023-02-24T09:35:41;9.48;;;1.90;;
77948;SDS011;67146;51.236;-0.336;2023-02-24T09:38:33;8.88;;;1.77;;
77948;SDS011;67146;51.236;-0.336;2023-02-24T09:41:21;11.07;;;1.65;;
77948;SDS011;67146;51.236;-0.336;2023-02-24T09:43:55;8.35;;;1.10;;
77948;SDS011;67146;51.236;-0.336;2023-02-24T09:46:27;7.15;;;1.05;;
77948;SDS011;67146;51.236;-0.336;2023-02-24T09:48:58;6.20;;;0.88;;
77948;SDS011;67146;51.236;-0.336;2023-02-24T09:51:30;5.90;;;0.80;;
77948;SDS011;67146;51.236;-0.336;2023-02-24T09:54:10;4.88;;;0.85;;
77948;SDS011;67146;51.236;-0.336;2023-02-24T09:56:40;10.13;;;1.10;;
77948;SDS011;67146;51.236;-0.336;2023-02-24T10:04:57;7.25;;;1.27;;
77948;SDS011;67146;51.236;-0.336;2023-02-24T10:07:44;7.85;;;1.92;;
77948;SDS011;67146;51.236;-0.336;2023-02-24T10:10:20;8.90;;;1.77;;
77948;SDS011;67146;51.236;-0.336;2023-02-24T10:13:00;9.13;;;1.35;;
77948;SDS011;67146;51.236;-0.336;2023-02-24T10:15:37;11.20;;;1.85;;
77948;SDS011;67146;51.236;-0.336;2023-02-24T10:20:51;7.63;;;1.20;;
77948;SDS011;67146;51.236;-0.336;2023-02-24T10:23:51;7.30;;;2.17;;
77948;SDS011;67146;51.236;-0.336;2023-02-24T10:26:22;9.02;;;1.23;;
77948;SDS011;67146;51.236;-0.336;2023-02-24T10:31:28;9.45;;;2.40;;
77948;SDS011;67146;51.236;-0.336;2023-02-24T10:34:07;6.85;;;1.52;;
77948;SDS011;67146;51.236;-0.336;2023-02-24T10:36:35;5.97;;;1.33;;
77948;SDS011;67146;51.236;-0.336;2023-02-24T10:42:02;7.35;;;1.70;;
77948;SDS011;67146;51.236;-0.336;2023-02-24T10:44:42;8.13;;;1.65;;
77948;SDS011;67146;51.236;-0.336;2023-02-24T10:47:19;10.38;;;2.03;;
77948;SDS011;67146;51.236;-0.336;2023-02-24T10:49:55;7.88;;;1.65;;
77948;SDS011;67146;51.236;-0.336;2023-02-24T10:55:01;7.68;;;1.70;;
77948;SDS011;67146;51.236;-0.336;2023-02-24T10:57:32;8.18;;;1.73;;
77948;SDS011;67146;51.236;-0.336;2023-02-24T11:00:01;7.07;;;1.70;;
77948;SDS011;67146;51.236;-0.336;2023-02-24T11:02:53;8.73;;;1.83;;
77948;SDS011;67146;51.236;-0.336;2023-02-24T11:05:39;12.40;;;1.88;;
77948;SDS011;67146;51.236;-0.336;2023-02-24T11:08:29;10.13;;;1.92;;
77948;SDS011;67146;51.236;-0.336;2023-02-24T11:11:24;7.80;;;2.08;;
77948;SDS011;67146;51.236;-0.336;2023-02-24T11:14:16;10.95;;;2.72;;
77948;SDS011;67146;51.236;-0.336;2023-02-24T11:17:01;10.38;;;2.33;;
77948;SDS011;67146;51.236;-0.336;2023-02-24T11:19:41;9.75;;;2.20;;
77948;SDS011;67146;51.236;-0.336;2023-02-24T11:22:30;10.45;;;2.80;;
77948;SDS011;67146;51.236;-0.336;2023-02-24T11:24:59;9.77;;;2.85;;
77948;SDS011;67146;51.236;-0.336;2023-02-24T11:27:29;7.10;;;3.22;;
77948;SDS011;67146;51.236;-0.336;2023-02-24T11:30:00;7.07;;;2.20;;
77948;SDS011;67146;51.236;-0.336;2023-02-24T11:40:55;11.60;;;2.92;;
77948;SDS011;67146;51.236;-0.336;2023-02-24T11:43:26;10.68;;;3.13;;
77948;SDS011;67146;51.236;-0.336;2023-02-24T11:45:56;18.75;;;6.32;;
77948;SDS011;67146;51.236;-0.336;2023-02-24T12:01:38;10.27;;;2.97;;
77948;SDS011;67146;51.236;-0.336;2023-02-24T12:04:21;14.70;;;3.92;;
77948;SDS011;67146;51.236;-0.336;2023-02-24T12:07:10;10.50;;;2.50;;
77948;SDS011;67146;51.236;-0.336;2023-02-24T12:09:46;11.52;;;2.55;;
77948;SDS011;67146;51.236;-0.336;2023-02-24T12:12:26;10.57;;;3.67;;
77948;SDS011;67146;51.236;-0.336;2023-02-24T12:14:59;11.20;;;2.33;;
77948;SDS011;67146;51.236;-0.336;2023-02-24T12:20:13;7.75;;;1.98;;
77948;SDS011;67146;51.236;-0.336;2023-02-24T12:25:15;9.85;;;2.72;;
77948;SDS011;67146;51.236;-0.336;2023-02-24T12:53:35;12.60;;;3.22;;
77948;SDS011;67146;51.236;-0.336;2023-02-24T12:56:19;8.57;;;2.40;;
77948;SDS011;67146;51.236;-0.336;2023-02-24T12:58:49;10.52;;;3.13;;
77948;SDS011;67146;51.236;-0.336;2023-02-24T13:01:34;11.38;;;2.80;;
77948;SDS011;67146;51.236;-0.336;2023-02-24T13:09:17;10.50;;;3.05;;
77948;SDS011;67146;51.236;-0.336;2023-02-24T13:14:43;11.75;;;3.13;;
77948;SDS011;67146;51.236;-0.336;2023-02-24T13:19:35;12.13;;;3.20;;
77948;SDS011;67146;51.236;-0.336;2023-02-24T13:24:40;12.88;;;3.45;;
77948;SDS011;67146;51.236;-0.336;2023-02-24T13:29:49;11.80;;;3.80;;
77948;SDS011;67146;51.236;-0.336;2023-02-24T13:32:23;11.57;;;3.92;;
77948;SDS011;67146;51.236;-0.336;2023-02-24T13:34:59;10.27;;;3.75;;
77948;SDS011;67146;51.236;-0.336;2023-02-24T13:37:36;9.90;;;3.92;;
77948;SDS011;67146;51.236;-0.336;2023-02-24T13:45:24;12.32;;;3.90;;
77948;SDS011;67146;51.236;-0.336;2023-02-24T13:56:56;13.73;;;3.28;;
77948;SDS011;67146;51.236;-0.336;2023-02-24T14:02:34;9.77;;;3.33;;
77948;SDS011;67146;51.236;-0.336;2023-02-24T14:05:17;9.75;;;3.60;;
77948;SDS011;67146;51.236;-0.336;2023-02-24T14:07:46;8.10;;;2.67;;
77948;SDS011;67146;51.236;-0.336;2023-02-24T14:12:49;8.60;;;2.15;;
77948;SDS011;67146;51.236;-0.336;2023-02-24T14:15:30;13.88;;;2.10;;
77948;SDS011;67146;51.236;-0.336;2023-02-24T14:17:57;8.82;;;2.35;;
77948;SDS011;67146;51.236;-0.336;2023-02-24T14:20:24;7.82;;;1.63;;
77948;SDS011;67146;51.236;-0.336;2023-02-24T14:22:54;8.40;;;2.45;;
77948;SDS011;67146;51.236;-0.336;2023-02-24T14:25:22;9.60;;;2.88;;
77948;SDS011;67146;51.236;-0.336;2023-02-24T14:27:50;6.75;;;1.70;;
77948;SDS011;67146;51.236;-0.336;2023-02-24T14:32:57;10.60;;;1.75;;
77948;SDS011;67146;51.236;-0.336;2023-02-24T14:37:54;10.13;;;1.52;;
77948;SDS011;67146;51.236;-0.336;2023-02-24T14:40:21;7.63;;;1.90;;
77948;SDS011;67146;51.236;-0.336;2023-02-24T14:42:49;6.00;;;0.82;;
77948;SDS011;67146;51.236;-0.336;2023-02-24T14:45:16;9.63;;;2.17;;
77948;SDS011;67146;51.236;-0.336;2023-02-24T14:47:43;6.93;;;1.00;;
77948;SDS011;67146;51.236;-0.336;2023-02-24T14:50:15;9.48;;;1.23;;
77948;SDS011;67146;51.236;-0.336;2023-02-24T14:52:44;7.30;;;0.93;;
77948;SDS011;67146;51.236;-0.336;2023-02-24T14:55:20;5.80;;;0.95;;
77948;SDS011;67146;51.236;-0.336;2023-02-24T14:57:57;7.05;;;1.13;;
77948;SDS011;67146;51.236;-0.336;2023-02-24T15:00:49;7.63;;;1.92;;
77948;SDS011;67146;51.236;-0.336;2023-02-24T15:03:36;8.40;;;0.93;;
77948;SDS011;67146;51.236;-0.336;2023-02-24T15:06:12;9.13;;;1.48;;
77948;SDS011;67146;51.236;-0.336;2023-02-24T15:08:42;9.27;;;1.35;;
77948;SDS011;67146;51.236;-0.336;2023-02-24T15:13:45;9.63;;;2.03;;
77948;SDS011;67146;51.236;-0.336;2023-02-24T15:18:53;7.05;;;2.15;;
77948;SDS011;67146;51.236;-0.336;2023-02-24T15:21:21;8.15;;;1.88;;
77948;SDS011;67146;51.236;-0.336;2023-02-24T15:23:58;8.55;;;1.40;;
77948;SDS011;67146;51.236;-0.336;2023-02-24T15:26:29;8.82;;;1.20;;
77948;SDS011;67146;51.236;-0.336;2023-02-24T15:29:29;8.18;;;1.42;;
77948;SDS011;67146;51.236;-0.336;2023-02-24T15:31:50;7.03;;;1.20;;
77948;SDS011;67146;51.236;-0.336;2023-02-24T15:34:20;7.25;;;1.50;;
77948;SDS011;67146;51.236;-0.336;2023-02-24T15:36:47;7.97;;;1.20;;
77948;SDS011;67146;51.236;-0.336;2023-02-24T15:39:19;7.90;;;1.70;;
77948;SDS011;67146;51.236;-0.336;2023-02-24T15:41:48;12.60;;;1.95;;
77948;SDS011;67146;51.236;-0.336;2023-02-24T15:44:28;11.15;;;1.55;;
77948;SDS011;67146;51.236;-0.336;2023-02-24T15:46:58;8.77;;;1.45;;
77948;SDS011;67146;51.236;-0.336;2023-02-24T15:49:24;11.73;;;1.85;;
77948;SDS011;67146;51.236;-0.336;2023-02-24T15:51:51;7.32;;;1.70;;
77948;SDS011;67146;51.236;-0.336;2023-02-24T15:54:18;8.52;;;1.30;;
77948;SDS011;67146;51.236;-0.336;2023-02-24T15:56:46;8.70;;;1.98;;
77948;SDS011;67146;51.236;-0.336;2023-02-24T15:59:13;7.20;;;1.13;;
77948;SDS011;67146;51.236;-0.336;2023-02-24T16:01:40;10.60;;;1.55;;
77948;SDS011;67146;51.236;-0.336;2023-02-24T16:04:06;8.00;;;1.30;;
77948;SDS011;67146;51.236;-0.336;2023-02-24T16:06:33;6.65;;;1.23;;
77948;SDS011;67146;51.236;-0.336;2023-02-24T16:09:05;5.88;;;1.17;;
77948;SDS011;67146;51.236;-0.336;2023-02-24T16:11:32;8.15;;;1.23;;
77948;SDS011;67146;51.236;-0.336;2023-02-24T16:14:00;7.25;;;1.45;;
77948;SDS011;67146;51.236;-0.336;2023-02-24T16:16:26;11.23;;;1.20;;
77948;SDS011;67146;51.236;-0.336;2023-02-24T16:18:51;7.70;;;1.20;;
77948;SDS011;67146;51.236;-0.336;2023-02-24T16:21:17;8.50;;;1.35;;
77948;SDS011;67146;51.236;-0.336;2023-02-24T16:23:42;6.68;;;1.70;;
77948;SDS011;67146;51.236;-0.336;2023-02-24T16:26:13;9.73;;;1.45;;
77948;SDS011;67146;51.236;-0.336;2023-02-24T16:28:40;9.15;;;1.85;;
77948;SDS011;67146;51.236;-0.336;2023-02-24T16:31:06;10.85;;;1.52;;
77948;SDS011;67146;51.236;-0.336;2023-02-24T16:33:32;5.93;;;1.67;;
77948;SDS011;67146;51.236;-0.336;2023-02-24T16:35:59;8.15;;;1.55;;
77948;SDS011;67146;51.236;-0.336;2023-02-24T16:38:24;5.93;;;1.27;;
77948;SDS011;67146;51.236;-0.336;2023-02-24T16:40:53;8.52;;;1.25;;
77948;SDS011;67146;51.236;-0.336;2023-02-24T16:43:19;9.88;;;1.45;;
77948;SDS011;67146;51.236;-0.336;2023-02-24T16:45:44;9.63;;;1.83;;
77948;SDS011;67146;51.236;-0.336;2023-02-24T16:48:17;7.88;;;1.52;;
77948;SDS011;67146;51.236;-0.336;2023-02-24T16:50:44;10.55;;;1.25;;
77948;SDS011;67146;51.236;-0.336;2023-02-24T16:53:11;4.90;;;1.38;;
77948;SDS011;67146;51.236;-0.336;2023-02-24T16:55:39;10.05;;;2.20;;
77948;SDS011;67146;51.236;-0.336;2023-02-24T16:58:04;9.48;;;1.83;;
77948;SDS011;67146;51.236;-0.336;2023-02-24T17:00:30;7.03;;;1.37;;
77948;SDS011;67146;51.236;-0.336;2023-02-24T17:02:55;9.68;;;1.70;;
77948;SDS011;67146;51.236;-0.336;2023-02-24T17:05:25;10.55;;;1.80;;
77948;SDS011;67146;51.236;-0.336;2023-02-24T17:07:52;5.75;;;1.35;;
77948;SDS011;67146;51.236;-0.336;2023-02-24T17:10:19;8.65;;;1.60;;
77948;SDS011;67146;51.236;-0.336;2023-02-24T17:12:45;6.47;;;1.33;;
77948;SDS011;67146;51.236;-0.336;2023-02-24T17:15:16;13.45;;;1.90;;
77948;SDS011;67146;51.236;-0.336;2023-02-24T17:17:43;13.68;;;2.13;;
77948;SDS011;67146;51.236;-0.336;2023-02-24T17:20:10;9.85;;;1.30;;
77948;SDS011;67146;51.236;-0.336;2023-02-24T17:22:37;9.52;;;1.65;;